createdAt,value
2023-02-14T00:00:34.628Z,20.67
2023-02-14T00:03:01.213Z,18.48
2023-02-14T00:05:27.824Z,18.83
2023-02-14T00:08:06.415Z,17.80
2023-02-14T00:10:32.951Z,18.45
2023-02-14T00:12:59.621Z,18.50
2023-02-14T00:15:26.189Z,21.87
2023-02-14T00:18:14.613Z,20.65
2023-02-14T00:24:11.643Z,19.62
2023-02-14T00:26:41.357Z,21.17
2023-02-14T00:29:10.211Z,20.75
2023-02-14T00:31:37.487Z,18.42
2023-02-14T00:34:04.573Z,21.85
2023-02-14T00:58:35.061Z,24.05
2023-02-14T01:01:02.136Z,20.85
2023-02-14T01:03:29.080Z,23.90
2023-02-14T01:05:55.672Z,21.73
2023-02-14T01:08:22.234Z,20.90
2023-02-14T01:13:24.362Z,24.80
2023-02-14T01:15:52.123Z,21.17
2023-02-14T01:18:19.701Z,20.27
2023-02-14T01:20:46.524Z,19.45
2023-02-14T01:23:13.116Z,21.62
2023-02-14T01:25:40.104Z,23.00
2023-02-14T01:28:34.960Z,24.40
2023-02-14T01:31:32.554Z,21.50
2023-02-14T01:33:59.805Z,22.33
2023-02-14T01:36:32.611Z,24.00
2023-02-14T01:39:03.049Z,22.42
2023-02-14T01:41:33.147Z,22.83
2023-02-14T01:44:00.926Z,23.60
2023-02-14T01:49:40.737Z,21.75
2023-02-14T01:53:08.849Z,22.08
2023-02-14T01:55:48.774Z,22.17
2023-02-14T02:01:26.842Z,21.98
2023-02-14T02:09:44.723Z,19.77
2023-02-14T02:12:11.996Z,22.98
2023-02-14T02:14:39.758Z,20.55
2023-02-14T02:17:43.388Z,21.23
2023-02-14T02:23:09.232Z,21.52
2023-02-14T02:25:57.248Z,23.87
2023-02-14T02:28:44.681Z,26.02
2023-02-14T02:31:30.148Z,23.40
2023-02-14T02:34:30.465Z,23.35
2023-02-14T02:41:12.054Z,20.50
2023-02-14T02:46:41.601Z,20.58
2023-02-14T02:50:08.440Z,20.25
2023-02-14T02:55:54.665Z,37.05
2023-02-14T02:58:24.412Z,36.42
2023-02-14T03:00:53.772Z,34.25
2023-02-14T03:03:43.027Z,27.87
2023-02-14T03:06:47.551Z,28.83
2023-02-14T03:09:33.436Z,27.95
2023-02-14T03:12:31.693Z,28.25
2023-02-14T03:15:31.507Z,25.12
2023-02-14T03:18:50.996Z,22.27
2023-02-14T03:21:26.385Z,24.50
2023-02-14T03:27:12.399Z,21.67
2023-02-14T03:29:51.000Z,21.40
2023-02-14T03:32:31.409Z,20.88
2023-02-14T03:35:35.701Z,22.15
2023-02-14T03:38:58.867Z,20.95
2023-02-14T03:41:31.569Z,21.23
2023-02-14T03:44:03.023Z,20.30
2023-02-14T03:46:39.422Z,21.92
2023-02-14T03:49:11.687Z,22.60
2023-02-14T03:51:39.698Z,21.87
2023-02-14T03:57:14.149Z,22.87
2023-02-14T03:59:42.292Z,22.62
2023-02-14T04:02:27.847Z,21.50
2023-02-14T04:05:32.280Z,23.35
2023-02-14T04:08:46.045Z,22.85
2023-02-14T04:11:13.185Z,21.45
2023-02-14T04:13:39.949Z,22.83
2023-02-14T04:16:07.230Z,21.92
2023-02-14T04:18:52.892Z,22.40
2023-02-14T04:21:19.551Z,21.92
2023-02-14T04:26:28.163Z,18.98
2023-02-14T04:28:54.789Z,20.65
2023-02-14T04:31:21.510Z,21.60
2023-02-14T04:34:46.777Z,20.37
2023-02-14T04:37:41.668Z,21.75
2023-02-14T04:40:26.584Z,21.02
2023-02-14T04:42:53.194Z,23.42
2023-02-14T04:45:19.831Z,20.62
2023-02-14T04:47:46.703Z,22.62
2023-02-14T04:50:13.884Z,22.15
2023-02-14T04:52:41.325Z,20.27
2023-02-14T04:55:17.015Z,20.40
2023-02-14T04:57:43.597Z,19.08
2023-02-14T05:00:11.079Z,23.33
2023-02-14T05:02:37.678Z,21.20
2023-02-14T05:05:22.586Z,20.55
2023-02-14T05:10:44.696Z,23.05
2023-02-14T05:13:11.254Z,24.83
2023-02-14T05:15:38.617Z,23.05
2023-02-14T05:18:05.947Z,24.77
2023-02-14T05:20:32.829Z,23.50
2023-02-14T05:25:54.098Z,21.00
2023-02-14T05:28:20.724Z,23.48
2023-02-14T05:33:52.194Z,22.50
2023-02-14T06:02:15.963Z,23.33
2023-02-14T06:04:43.113Z,22.75
2023-02-14T06:07:09.749Z,27.00
2023-02-14T06:09:58.041Z,28.12
2023-02-14T06:12:46.215Z,23.98
2023-02-14T06:15:12.854Z,27.13
2023-02-14T06:17:39.532Z,29.65
2023-02-14T06:20:07.392Z,26.87
2023-02-14T06:22:33.985Z,28.83
2023-02-14T06:25:00.569Z,35.75
2023-02-14T06:27:29.865Z,37.80
2023-02-14T06:29:57.543Z,40.97
2023-02-14T06:32:24.292Z,42.08
2023-02-14T06:35:09.806Z,35.75
2023-02-14T06:37:36.368Z,34.15
2023-02-14T06:40:03.096Z,32.22
2023-02-14T06:42:29.643Z,28.20
2023-02-14T06:44:56.203Z,28.62
2023-02-14T06:47:41.370Z,28.60
2023-02-14T06:50:11.581Z,28.50
2023-02-14T06:52:38.634Z,30.95
2023-02-14T06:55:05.805Z,27.62
2023-02-14T06:57:32.393Z,26.90
2023-02-14T06:59:59.039Z,28.25
2023-02-14T07:02:25.783Z,28.92
2023-02-14T07:04:52.494Z,28.15
2023-02-14T07:07:19.256Z,28.58
2023-02-14T07:09:48.962Z,30.00
2023-02-14T07:12:15.557Z,27.25
2023-02-14T07:14:42.406Z,28.00
2023-02-14T07:17:08.954Z,26.52
2023-02-14T07:19:35.582Z,30.95
2023-02-14T07:22:02.174Z,45.65
2023-02-14T07:24:28.845Z,45.00
2023-02-14T07:26:55.397Z,44.45
2023-02-14T07:29:21.981Z,48.72
2023-02-14T07:31:48.769Z,51.53
2023-02-14T07:34:15.448Z,48.97
2023-02-14T07:36:42.266Z,48.03
2023-02-14T07:39:08.823Z,46.13
2023-02-14T07:41:35.440Z,45.65
2023-02-14T07:44:02.010Z,42.05
2023-02-14T07:46:28.583Z,41.00
2023-02-14T07:48:55.236Z,44.53
2023-02-14T07:51:21.830Z,49.72
2023-02-14T07:53:48.498Z,46.35
2023-02-14T07:56:15.129Z,47.42
2023-02-14T07:58:41.800Z,40.83
2023-02-14T08:01:08.664Z,39.85
2023-02-14T08:03:35.217Z,36.20
2023-02-14T08:06:01.831Z,39.75
2023-02-14T08:08:30.831Z,35.53
2023-02-14T08:10:58.032Z,45.55
2023-02-14T08:13:24.860Z,36.17
2023-02-14T08:16:07.360Z,40.03
2023-02-14T08:18:40.720Z,40.50
2023-02-14T08:21:09.544Z,36.35
2023-02-14T08:23:36.960Z,36.58
2023-02-14T08:26:03.829Z,36.72
2023-02-14T08:28:32.341Z,40.05
2023-02-14T08:30:59.567Z,39.50
2023-02-14T08:33:26.395Z,30.65
2023-02-14T08:35:53.006Z,39.10
2023-02-14T08:38:19.631Z,38.92
2023-02-14T08:40:46.318Z,37.95
2023-02-14T08:43:13.392Z,52.75
2023-02-14T08:45:40.381Z,47.47
2023-02-14T08:48:10.045Z,43.38
2023-02-14T08:50:37.803Z,45.03
2023-02-14T08:53:12.351Z,42.92
2023-02-14T08:55:40.019Z,43.00
2023-02-14T08:58:07.617Z,46.90
2023-02-14T09:00:34.268Z,44.15
2023-02-14T09:03:01.324Z,41.08
2023-02-14T09:05:28.011Z,34.88
2023-02-14T09:07:56.535Z,32.72
2023-02-14T09:10:24.849Z,30.67
2023-02-14T09:12:52.287Z,29.67
2023-02-14T09:15:19.279Z,29.92
2023-02-14T09:17:46.654Z,24.55
2023-02-14T09:20:16.598Z,26.83
2023-02-14T09:22:43.715Z,27.27
2023-02-14T09:25:10.602Z,26.27
2023-02-14T09:27:37.750Z,25.65
2023-02-14T09:30:06.266Z,26.05
2023-02-14T09:32:33.162Z,27.33
2023-02-14T09:35:00.238Z,27.10
2023-02-14T09:37:27.147Z,28.10
2023-02-14T09:39:53.702Z,28.30
2023-02-14T09:42:26.403Z,26.42
2023-02-14T09:45:02.741Z,26.10
2023-02-14T09:47:52.090Z,26.95
2023-02-14T09:51:02.552Z,26.40
2023-02-14T09:53:33.543Z,24.08
2023-02-14T09:56:00.290Z,22.77
2023-02-14T09:58:59.227Z,20.92
2023-02-14T10:01:40.927Z,19.80
2023-02-14T10:04:07.536Z,20.62
2023-02-14T10:06:49.320Z,20.65
2023-02-14T10:09:37.495Z,17.20
2023-02-14T10:12:05.976Z,16.87
2023-02-14T10:14:40.355Z,18.33
2023-02-14T10:17:15.345Z,17.08
2023-02-14T10:19:48.287Z,16.70
2023-02-14T10:22:17.115Z,18.10
2023-02-14T10:24:57.612Z,16.70
2023-02-14T10:27:34.987Z,19.30
2023-02-14T10:30:03.432Z,19.33
2023-02-14T10:32:45.166Z,17.58
2023-02-14T10:35:23.524Z,22.80
2023-02-14T10:38:13.399Z,16.75
2023-02-14T10:41:16.668Z,18.30
2023-02-14T10:44:17.304Z,17.80
2023-02-14T10:46:56.177Z,16.30
2023-02-14T10:49:38.608Z,18.42
2023-02-14T10:52:43.761Z,17.17
2023-02-14T10:55:31.892Z,15.63
2023-02-14T10:58:07.113Z,17.50
2023-02-14T11:00:37.831Z,17.80
2023-02-14T11:03:10.840Z,14.85
2023-02-14T11:05:47.790Z,18.37
2023-02-14T11:09:05.040Z,21.37
2023-02-14T11:12:10.250Z,16.45
2023-02-14T11:14:39.857Z,15.60
2023-02-14T11:17:29.567Z,17.52
2023-02-14T11:20:06.369Z,18.70
2023-02-14T11:22:34.911Z,17.62
2023-02-14T11:25:35.604Z,15.88
2023-02-14T11:28:19.736Z,17.23
2023-02-14T11:30:48.483Z,17.48
2023-02-14T11:33:44.227Z,16.65
2023-02-14T11:36:17.523Z,15.63
2023-02-14T11:39:26.838Z,15.73
2023-02-14T11:42:13.031Z,17.10
2023-02-14T11:44:55.016Z,16.73
2023-02-14T11:47:29.574Z,14.00
2023-02-14T11:50:10.968Z,13.60
2023-02-14T11:52:49.977Z,14.35
2023-02-14T11:55:42.728Z,15.20
2023-02-14T11:58:46.959Z,15.65
2023-02-14T12:01:24.486Z,15.35
2023-02-14T12:03:52.693Z,15.80
2023-02-14T12:06:31.377Z,15.07
2023-02-14T12:09:24.025Z,13.20
2023-02-14T12:12:14.811Z,14.27
2023-02-14T12:14:41.549Z,14.18
2023-02-14T12:17:28.990Z,19.33
2023-02-14T12:20:03.554Z,15.40
2023-02-14T12:22:35.057Z,14.10
2023-02-14T12:25:16.843Z,12.80
2023-02-14T12:28:04.208Z,17.10
2023-02-14T12:30:35.035Z,16.30
2023-02-14T12:33:01.980Z,13.85
2023-02-14T12:36:02.395Z,13.62
2023-02-14T12:38:47.694Z,15.60
2023-02-14T12:41:32.644Z,15.60
2023-02-14T12:44:06.478Z,14.75
2023-02-14T12:47:02.363Z,13.13
2023-02-14T12:49:52.494Z,13.07
2023-02-14T12:52:41.162Z,13.85
2023-02-14T12:55:38.648Z,12.30
2023-02-14T12:58:23.787Z,11.95
2023-02-14T13:01:28.878Z,12.82
2023-02-14T13:04:25.525Z,14.00
2023-02-14T13:07:00.284Z,14.45
2023-02-14T13:10:05.136Z,13.62
2023-02-14T13:12:52.157Z,15.65
2023-02-14T13:15:28.758Z,15.23
2023-02-14T13:17:58.748Z,16.08
2023-02-14T13:20:41.190Z,13.40
2023-02-14T13:23:40.005Z,15.18
2023-02-14T13:26:12.967Z,23.12
2023-02-14T13:31:07.777Z,15.25
2023-02-14T13:33:39.498Z,14.18
2023-02-14T13:36:12.256Z,15.90
2023-02-14T13:38:46.770Z,13.95
2023-02-14T13:41:15.399Z,15.65
2023-02-14T13:43:45.699Z,13.45
2023-02-14T13:46:15.002Z,16.27
2023-02-14T13:48:42.975Z,13.85
2023-02-14T13:51:10.261Z,14.85
2023-02-14T13:53:38.808Z,14.68
2023-02-14T13:56:17.467Z,15.65
2023-02-14T13:58:55.896Z,14.20
2023-02-14T14:01:33.102Z,16.20
2023-02-14T14:04:25.909Z,15.27
2023-02-14T14:07:04.408Z,14.45
2023-02-14T14:09:43.593Z,15.38
2023-02-14T14:12:28.651Z,17.12
2023-02-14T14:15:04.446Z,16.77
2023-02-14T14:17:37.315Z,16.77
2023-02-14T14:20:26.715Z,17.80
2023-02-14T14:22:56.066Z,17.50
2023-02-14T14:25:42.871Z,17.70
2023-02-14T14:28:21.448Z,15.02
2023-02-14T14:30:48.376Z,16.00
2023-02-14T14:33:24.585Z,16.48
2023-02-14T14:36:00.705Z,15.35
2023-02-14T14:38:30.027Z,15.55
2023-02-14T14:40:57.784Z,14.10
2023-02-14T14:43:31.401Z,15.73
2023-02-14T14:46:02.329Z,14.05
2023-02-14T14:48:38.332Z,15.25
2023-02-14T14:51:07.798Z,14.00
2023-02-14T14:53:41.983Z,15.00
2023-02-14T14:59:36.246Z,15.38
2023-02-14T15:02:20.619Z,15.85
2023-02-14T15:04:47.270Z,15.15
2023-02-14T15:07:18.243Z,14.73
2023-02-14T15:09:44.948Z,15.20
2023-02-14T15:15:52.346Z,13.00
2023-02-14T15:18:34.031Z,15.57
2023-02-14T15:21:02.947Z,16.23
2023-02-14T15:23:29.769Z,13.40
2023-02-14T15:25:56.427Z,14.75
2023-02-14T15:28:41.359Z,14.48
2023-02-14T15:31:08.174Z,15.07
2023-02-14T15:33:36.542Z,15.15
2023-02-14T15:36:06.339Z,15.05
2023-02-14T15:38:36.468Z,17.55
2023-02-14T15:41:16.864Z,15.25
2023-02-14T15:43:43.474Z,14.82
2023-02-14T15:46:28.014Z,15.45
2023-02-14T15:49:01.184Z,15.98
2023-02-14T15:51:35.780Z,16.15
2023-02-14T15:54:06.436Z,15.85
2023-02-14T15:56:45.756Z,16.73
2023-02-14T15:59:17.784Z,16.25
2023-02-14T16:01:57.620Z,18.48
2023-02-14T16:04:35.222Z,18.25
2023-02-14T16:07:22.178Z,16.35
2023-02-14T16:09:49.680Z,15.38
2023-02-14T16:12:37.109Z,19.62
2023-02-14T16:15:18.888Z,16.65
2023-02-14T16:17:45.626Z,26.02
2023-02-14T16:20:42.269Z,17.83
2023-02-14T16:23:25.417Z,20.23
2023-02-14T16:25:53.265Z,26.20
2023-02-14T16:28:20.390Z,23.58
2023-02-14T16:30:52.794Z,21.58
2023-02-14T16:33:22.366Z,21.52
2023-02-14T16:35:49.726Z,23.17
2023-02-14T16:38:18.802Z,21.17
2023-02-14T16:40:47.961Z,24.10
2023-02-14T16:43:16.002Z,22.75
2023-02-14T16:45:43.259Z,24.35
2023-02-14T16:48:10.347Z,25.67
2023-02-14T16:50:38.952Z,36.85
2023-02-14T16:53:12.053Z,29.73
2023-02-14T16:58:06.563Z,31.20
2023-02-14T17:00:33.165Z,29.80
2023-02-14T17:03:17.571Z,28.08
2023-02-14T17:05:44.323Z,24.90
2023-02-14T17:08:13.296Z,25.90
2023-02-14T17:10:42.218Z,24.73
2023-02-14T17:13:10.760Z,24.67
2023-02-14T17:15:39.061Z,26.50
2023-02-14T17:18:11.346Z,62.08
2023-02-14T17:20:40.626Z,123.62
2023-02-14T17:23:07.215Z,44.03
2023-02-14T17:25:33.866Z,109.25
2023-02-14T17:28:01.096Z,43.47
2023-02-14T17:30:28.138Z,33.13
2023-02-14T17:32:54.706Z,33.83
2023-02-14T17:35:21.290Z,32.78
2023-02-14T17:37:48.179Z,31.73
2023-02-14T17:40:15.063Z,35.95
2023-02-14T17:42:41.861Z,39.53
2023-02-14T17:45:11.689Z,36.30
2023-02-14T17:47:39.736Z,34.30
2023-02-14T17:50:07.032Z,32.03
2023-02-14T17:52:34.420Z,37.33
2023-02-14T17:55:01.059Z,32.40
2023-02-14T17:57:27.972Z,31.62
2023-02-14T17:59:54.581Z,33.13
2023-02-14T18:02:21.189Z,34.75
2023-02-14T18:04:48.487Z,36.17
2023-02-14T18:07:15.246Z,55.95
2023-02-14T18:09:42.279Z,57.83
2023-02-14T18:12:14.634Z,45.53
2023-02-14T18:14:42.056Z,40.92
2023-02-14T18:17:08.691Z,30.95
2023-02-14T18:19:35.317Z,27.40
2023-02-14T18:22:01.883Z,28.12
2023-02-14T18:24:37.332Z,32.08
2023-02-14T18:27:05.921Z,33.83
2023-02-14T18:29:33.250Z,35.50
2023-02-14T18:32:00.162Z,39.17
2023-02-14T18:34:26.806Z,35.35
2023-02-14T18:36:53.532Z,29.77
2023-02-14T18:39:20.185Z,30.55
2023-02-14T18:41:46.753Z,27.90
2023-02-14T18:44:13.622Z,28.27
2023-02-14T18:46:40.228Z,31.08
2023-02-14T18:49:08.380Z,30.30
2023-02-14T18:51:39.037Z,26.67
2023-02-14T18:54:06.362Z,26.95
2023-02-14T18:56:36.027Z,28.00
2023-02-14T18:59:06.780Z,26.25
2023-02-14T19:01:46.254Z,25.25
2023-02-14T19:04:13.680Z,25.35
2023-02-14T19:06:41.868Z,24.02
2023-02-14T19:09:11.217Z,28.33
2023-02-14T19:11:38.697Z,26.23
2023-02-14T19:14:10.042Z,25.73
2023-02-14T19:16:42.185Z,27.70
2023-02-14T19:19:09.082Z,26.35
2023-02-14T19:21:36.837Z,26.20
2023-02-14T19:24:06.916Z,26.85
2023-02-14T19:26:37.695Z,26.30
2023-02-14T19:29:06.932Z,25.75
2023-02-14T19:31:38.267Z,30.15
2023-02-14T19:34:06.521Z,28.77
2023-02-14T19:36:37.570Z,32.05
2023-02-14T19:39:05.346Z,29.35
2023-02-14T19:41:36.699Z,28.48
2023-02-14T19:44:05.353Z,29.00
2023-02-14T19:46:32.782Z,30.12
2023-02-14T19:49:00.357Z,28.08
2023-02-14T19:51:33.872Z,28.45
2023-02-14T19:54:03.425Z,28.05
2023-02-14T19:56:32.762Z,28.83
2023-02-14T19:59:00.000Z,30.12
2023-02-14T20:01:33.775Z,26.95
2023-02-14T20:04:00.794Z,30.95
2023-02-14T20:06:29.418Z,31.75
2023-02-14T20:08:56.258Z,28.50
2023-02-14T20:11:29.035Z,30.60
2023-02-14T20:13:56.041Z,30.77
2023-02-14T20:16:24.279Z,31.15
2023-02-14T20:18:51.129Z,27.02
2023-02-14T20:21:28.307Z,27.87
2023-02-14T20:24:01.213Z,28.77
2023-02-14T20:26:30.297Z,28.23
2023-02-14T20:29:04.037Z,27.70
2023-02-14T20:31:32.840Z,30.42
2023-02-14T20:34:00.541Z,26.00
2023-02-14T20:36:27.419Z,26.83
2023-02-14T20:39:02.564Z,29.75
2023-02-14T20:41:30.279Z,29.58
2023-02-14T20:44:04.332Z,31.12
2023-02-14T20:46:31.666Z,30.42
2023-02-14T20:48:58.376Z,27.75
2023-02-14T20:51:25.679Z,28.27
2023-02-14T20:53:52.878Z,27.10
2023-02-14T20:56:21.044Z,29.55
2023-02-14T20:59:15.714Z,29.75
2023-02-14T21:02:02.418Z,32.15
2023-02-14T21:04:30.173Z,33.55
2023-02-14T21:06:57.937Z,28.80
2023-02-14T21:09:24.644Z,31.67
2023-02-14T21:11:53.814Z,29.85
2023-02-14T21:14:21.000Z,27.52
2023-02-14T21:17:06.373Z,25.90
2023-02-14T21:19:32.969Z,26.65
2023-02-14T21:21:59.578Z,25.70
2023-02-14T21:24:26.168Z,26.95
2023-02-14T21:27:04.942Z,27.50
2023-02-14T21:29:49.838Z,27.48
2023-02-14T21:32:34.843Z,27.90
2023-02-14T21:35:16.568Z,24.80
2023-02-14T21:37:43.503Z,27.75
2023-02-14T21:40:10.316Z,26.60
2023-02-14T21:42:36.844Z,25.05
2023-02-14T21:45:23.102Z,25.65
2023-02-14T21:48:09.606Z,27.83
2023-02-14T21:50:38.997Z,27.30
2023-02-14T21:53:07.545Z,26.35
2023-02-14T21:55:35.235Z,25.17
2023-02-14T21:58:01.920Z,29.35
2023-02-14T22:00:28.453Z,27.45
2023-02-14T22:03:04.509Z,26.80
2023-02-14T22:05:31.056Z,27.52
2023-02-14T22:07:57.608Z,28.62
2023-02-14T22:10:24.201Z,27.75
2023-02-14T22:16:15.776Z,28.65
2023-02-14T22:18:42.819Z,29.20
2023-02-14T22:21:14.481Z,32.65
2023-02-14T22:23:41.318Z,30.05
2023-02-14T22:26:14.753Z,28.23
2023-02-14T22:28:42.638Z,31.20
2023-02-14T22:31:10.150Z,31.10
2023-02-14T22:33:37.873Z,29.23
2023-02-14T22:36:05.614Z,30.05
2023-02-14T22:38:33.020Z,33.90
2023-02-14T22:41:11.744Z,31.23
2023-02-14T22:43:39.753Z,33.05
2023-02-14T22:46:09.951Z,33.05
2023-02-14T22:48:37.839Z,32.10
2023-02-14T22:51:09.584Z,31.95
2023-02-14T22:53:36.730Z,33.15
2023-02-14T22:56:31.249Z,35.13
2023-02-14T22:59:00.906Z,32.47
2023-02-14T23:01:28.200Z,35.28
2023-02-14T23:03:57.552Z,35.35
2023-02-14T23:06:26.312Z,35.53
2023-02-14T23:08:54.091Z,36.22
2023-02-14T23:11:27.359Z,35.15
2023-02-14T23:14:13.407Z,33.67
2023-02-14T23:19:38.509Z,33.25
2023-02-14T23:22:08.449Z,30.95
2023-02-14T23:24:35.065Z,34.67
2023-02-14T23:27:02.334Z,33.17
2023-02-14T23:29:29.839Z,32.55
2023-02-14T23:32:39.258Z,31.60
2023-02-14T23:35:30.790Z,31.75
2023-02-14T23:37:57.382Z,33.95
2023-02-14T23:40:24.632Z,32.42
2023-02-14T23:42:53.945Z,32.97
2023-02-14T23:45:35.871Z,31.70
2023-02-14T23:48:05.086Z,32.22
2023-02-14T23:50:50.101Z,32.22
2023-02-14T23:53:16.717Z,30.00
2023-02-14T23:55:43.267Z,31.12
2023-02-14T23:58:09.909Z,32.25
